sensor_id;sensor_type;location;lat;lon;timestamp;temperature;humidity
79024;DHT22;70306;44.764;37.688;2023-06-01T06:18:45;22.40;74.56
79024;DHT22;70306;44.764;37.688;2023-06-01T06:19:52;22.41;74.76
79024;DHT22;70306;44.764;37.688;2023-06-01T06:20:54;22.43;73.93
79024;DHT22;70306;44.764;37.688;2023-06-01T06:21:56;22.45;73.82
79024;DHT22;70306;44.764;37.688;2023-06-01T06:22:58;22.49;74.76
79024;DHT22;70306;44.764;37.688;2023-06-01T06:25:20;22.65;74.13
79024;DHT22;70306;44.764;37.688;2023-06-01T06:26:22;22.73;74.53
79024;DHT22;70306;44.764;37.688;2023-06-01T06:27:24;22.81;73.79
79024;DHT22;70306;44.764;37.688;2023-06-01T06:28:26;22.81;73.56
79024;DHT22;70306;44.764;37.688;2023-06-01T06:29:29;22.89;74.58
79024;DHT22;70306;44.764;37.688;2023-06-01T06:30:31;22.99;74.37
79024;DHT22;70306;44.764;37.688;2023-06-01T06:31:33;23.07;74.11
79024;DHT22;70306;44.764;37.688;2023-06-01T06:32:35;23.17;74.28
79024;DHT22;70306;44.764;37.688;2023-06-01T06:33:37;23.30;74.20
79024;DHT22;70306;44.764;37.688;2023-06-01T06:34:39;23.33;73.56
79024;DHT22;70306;44.764;37.688;2023-06-01T06:35:42;23.36;73.08
79024;DHT22;70306;44.764;37.688;2023-06-01T06:36:44;23.40;73.80
79024;DHT22;70306;44.764;37.688;2023-06-01T06:37:46;23.45;72.73
79024;DHT22;70306;44.764;37.688;2023-06-01T06:38:48;23.47;72.24
79024;DHT22;70306;44.764;37.688;2023-06-01T06:39:50;23.47;72.18
79024;DHT22;70306;44.764;37.688;2023-06-01T06:40:52;23.51;72.88
79024;DHT22;70306;44.764;37.688;2023-06-01T06:41:54;23.52;72.24
79024;DHT22;70306;44.764;37.688;2023-06-01T06:42:56;23.51;72.12
79024;DHT22;70306;44.764;37.688;2023-06-01T06:43:58;23.51;72.14
79024;DHT22;70306;44.764;37.688;2023-06-01T06:45:00;23.50;72.27
79024;DHT22;70306;44.764;37.688;2023-06-01T06:46:02;23.51;71.63
79024;DHT22;70306;44.764;37.688;2023-06-01T06:47:05;23.50;72.22
79024;DHT22;70306;44.764;37.688;2023-06-01T06:48:07;23.47;72.16
79024;DHT22;70306;44.764;37.688;2023-06-01T06:49:10;23.47;72.38
79024;DHT22;70306;44.764;37.688;2023-06-01T06:50:13;23.43;71.10
79024;DHT22;70306;44.764;37.688;2023-06-01T06:51:15;23.47;71.18
79024;DHT22;70306;44.764;37.688;2023-06-01T06:52:35;23.47;71.20
79024;DHT22;70306;44.764;37.688;2023-06-01T06:53:37;23.47;71.93
79024;DHT22;70306;44.764;37.688;2023-06-01T06:54:39;23.48;71.38
79024;DHT22;70306;44.764;37.688;2023-06-01T06:55:44;23.47;70.75
79024;DHT22;70306;44.764;37.688;2023-06-01T06:56:46;23.45;70.66
79024;DHT22;70306;44.764;37.688;2023-06-01T06:57:48;23.44;71.25
79024;DHT22;70306;44.764;37.688;2023-06-01T06:58:51;23.43;71.97
79024;DHT22;70306;44.764;37.688;2023-06-01T06:59:53;23.44;71.32
79024;DHT22;70306;44.764;37.688;2023-06-01T07:00:55;23.47;72.19
79024;DHT22;70306;44.764;37.688;2023-06-01T07:01:57;23.48;72.03
79024;DHT22;70306;44.764;37.688;2023-06-01T07:02:59;23.50;71.40
79024;DHT22;70306;44.764;37.688;2023-06-01T07:04:07;23.43;71.60
79024;DHT22;70306;44.764;37.688;2023-06-01T07:05:09;23.43;71.58
79024;DHT22;70306;44.764;37.688;2023-06-01T07:06:12;23.38;71.97
79024;DHT22;70306;44.764;37.688;2023-06-01T07:07:14;23.43;72.37
79024;DHT22;70306;44.764;37.688;2023-06-01T07:08:16;23.47;71.83
79024;DHT22;70306;44.764;37.688;2023-06-01T07:09:18;23.47;70.86
79024;DHT22;70306;44.764;37.688;2023-06-01T07:10:20;23.44;71.55
79024;DHT22;70306;44.764;37.688;2023-06-01T07:11:22;23.45;70.55
79024;DHT22;70306;44.764;37.688;2023-06-01T07:12:25;23.47;71.75
79024;DHT22;70306;44.764;37.688;2023-06-01T07:13:27;23.48;71.89
79024;DHT22;70306;44.764;37.688;2023-06-01T07:14:29;23.51;72.96
79024;DHT22;70306;44.764;37.688;2023-06-01T07:15:31;23.58;71.24
79024;DHT22;70306;44.764;37.688;2023-06-01T07:16:51;23.57;72.84
79024;DHT22;70306;44.764;37.688;2023-06-01T07:17:53;23.62;71.60
79024;DHT22;70306;44.764;37.688;2023-06-01T07:18:55;23.66;71.60
79024;DHT22;70306;44.764;37.688;2023-06-01T07:19:59;23.71;70.95
79024;DHT22;70306;44.764;37.688;2023-06-01T07:21:01;23.65;70.93
79024;DHT22;70306;44.764;37.688;2023-06-01T07:22:03;23.68;70.91
79024;DHT22;70306;44.764;37.688;2023-06-01T07:23:06;23.71;70.72
79024;DHT22;70306;44.764;37.688;2023-06-01T07:24:09;23.66;71.25
79024;DHT22;70306;44.764;37.688;2023-06-01T07:25:12;23.62;71.11
79024;DHT22;70306;44.764;37.688;2023-06-01T07:26:15;23.62;71.13
79024;DHT22;70306;44.764;37.688;2023-06-01T07:27:17;23.61;70.99
79024;DHT22;70306;44.764;37.688;2023-06-01T07:28:19;23.59;70.98
79024;DHT22;70306;44.764;37.688;2023-06-01T07:29:22;23.59;70.71
79024;DHT22;70306;44.764;37.688;2023-06-01T07:30:24;23.59;71.33
79024;DHT22;70306;44.764;37.688;2023-06-01T07:31:26;23.59;70.80
79024;DHT22;70306;44.764;37.688;2023-06-01T07:32:29;23.59;71.25
79024;DHT22;70306;44.764;37.688;2023-06-01T07:33:31;23.63;71.67
79024;DHT22;70306;44.764;37.688;2023-06-01T07:34:35;23.65;70.33
79024;DHT22;70306;44.764;37.688;2023-06-01T07:35:37;23.66;71.80
79024;DHT22;70306;44.764;37.688;2023-06-01T07:36:39;23.72;71.59
79024;DHT22;70306;44.764;37.688;2023-06-01T07:37:41;23.75;72.33
79024;DHT22;70306;44.764;37.688;2023-06-01T07:38:43;23.82;70.84
79024;DHT22;70306;44.764;37.688;2023-06-01T07:39:50;23.86;71.61
79024;DHT22;70306;44.764;37.688;2023-06-01T07:40:52;23.93;70.66
79024;DHT22;70306;44.764;37.688;2023-06-01T07:41:55;23.89;70.61
79024;DHT22;70306;44.764;37.688;2023-06-01T07:42:57;23.80;70.29
79024;DHT22;70306;44.764;37.688;2023-06-01T07:43:59;23.82;70.46
79024;DHT22;70306;44.764;37.688;2023-06-01T07:45:01;23.89;70.76
79024;DHT22;70306;44.764;37.688;2023-06-01T07:46:04;23.90;70.72
79024;DHT22;70306;44.764;37.688;2023-06-01T07:47:06;23.92;69.80
79024;DHT22;70306;44.764;37.688;2023-06-01T07:48:08;23.92;70.80
79024;DHT22;70306;44.764;37.688;2023-06-01T07:49:10;23.97;70.03
79024;DHT22;70306;44.764;37.688;2023-06-01T07:50:15;24.03;70.01
79024;DHT22;70306;44.764;37.688;2023-06-01T07:51:17;24.18;69.77
79024;DHT22;70306;44.764;37.688;2023-06-01T07:52:19;24.31;70.77
79024;DHT22;70306;44.764;37.688;2023-06-01T07:53:21;24.37;68.67
79024;DHT22;70306;44.764;37.688;2023-06-01T07:54:23;24.41;69.96
79024;DHT22;70306;44.764;37.688;2023-06-01T07:55:25;24.49;69.38
79024;DHT22;70306;44.764;37.688;2023-06-01T07:56:27;24.51;68.27
79024;DHT22;70306;44.764;37.688;2023-06-01T07:57:30;24.49;68.29
79024;DHT22;70306;44.764;37.688;2023-06-01T07:58:32;24.57;68.78
79024;DHT22;70306;44.764;37.688;2023-06-01T07:59:34;24.57;68.32
79024;DHT22;70306;44.764;37.688;2023-06-01T08:00:35;24.58;68.64
79024;DHT22;70306;44.764;37.688;2023-06-01T08:01:37;24.55;68.90
79024;DHT22;70306;44.764;37.688;2023-06-01T08:02:39;24.58;68.07
79024;DHT22;70306;44.764;37.688;2023-06-01T08:03:44;24.58;68.44
79024;DHT22;70306;44.764;37.688;2023-06-01T08:04:46;24.68;68.63
79024;DHT22;70306;44.764;37.688;2023-06-01T08:05:48;24.73;67.61
79024;DHT22;70306;44.764;37.688;2023-06-01T08:06:50;24.76;69.06
79024;DHT22;70306;44.764;37.688;2023-06-01T08:07:54;24.87;67.26
79024;DHT22;70306;44.764;37.688;2023-06-01T08:08:57;24.79;66.20
79024;DHT22;70306;44.764;37.688;2023-06-01T08:09:59;24.72;66.91
79024;DHT22;70306;44.764;37.688;2023-06-01T08:11:01;24.68;66.63
79024;DHT22;70306;44.764;37.688;2023-06-01T08:12:03;24.72;67.57
79024;DHT22;70306;44.764;37.688;2023-06-01T08:13:05;24.73;67.14
79024;DHT22;70306;44.764;37.688;2023-06-01T08:14:08;24.68;67.28
79024;DHT22;70306;44.764;37.688;2023-06-01T08:15:10;24.64;67.91
79024;DHT22;70306;44.764;37.688;2023-06-01T08:16:15;24.65;68.40
79024;DHT22;70306;44.764;37.688;2023-06-01T08:17:17;24.61;66.96
79024;DHT22;70306;44.764;37.688;2023-06-01T08:18:19;24.51;67.19
79024;DHT22;70306;44.764;37.688;2023-06-01T08:19:22;24.31;66.82
79024;DHT22;70306;44.764;37.688;2023-06-01T08:20:23;24.23;68.51
79024;DHT22;70306;44.764;37.688;2023-06-01T08:21:27;24.14;68.13
79024;DHT22;70306;44.764;37.688;2023-06-01T08:22:29;24.03;68.22
79024;DHT22;70306;44.764;37.688;2023-06-01T08:23:31;23.97;69.86
79024;DHT22;70306;44.764;37.688;2023-06-01T08:24:32;23.90;69.52
79024;DHT22;70306;44.764;37.688;2023-06-01T08:25:34;23.90;69.53
79024;DHT22;70306;44.764;37.688;2023-06-01T08:26:36;23.83;69.87
79024;DHT22;70306;44.764;37.688;2023-06-01T08:27:37;23.80;69.56
79024;DHT22;70306;44.764;37.688;2023-06-01T08:28:39;23.78;70.10
79024;DHT22;70306;44.764;37.688;2023-06-01T08:29:41;23.80;69.10
79024;DHT22;70306;44.764;37.688;2023-06-01T08:30:42;23.82;69.48
79024;DHT22;70306;44.764;37.688;2023-06-01T08:31:44;23.83;69.99
79024;DHT22;70306;44.764;37.688;2023-06-01T08:32:45;23.88;70.11
79024;DHT22;70306;44.764;37.688;2023-06-01T08:33:48;23.88;69.41
79024;DHT22;70306;44.764;37.688;2023-06-01T08:34:50;23.89;68.54
79024;DHT22;70306;44.764;37.688;2023-06-01T08:35:52;23.89;69.15
79024;DHT22;70306;44.764;37.688;2023-06-01T08:36:53;23.89;69.50
79024;DHT22;70306;44.764;37.688;2023-06-01T08:37:55;23.89;68.48
79024;DHT22;70306;44.764;37.688;2023-06-01T08:38:57;23.85;69.99
79024;DHT22;70306;44.764;37.688;2023-06-01T08:39:58;23.80;69.20
79024;DHT22;70306;44.764;37.688;2023-06-01T08:41:04;23.79;69.55
79024;DHT22;70306;44.764;37.688;2023-06-01T08:42:30;23.78;69.10
79024;DHT22;70306;44.764;37.688;2023-06-01T08:43:35;23.76;69.59
79024;DHT22;70306;44.764;37.688;2023-06-01T08:44:41;23.75;68.92
79024;DHT22;70306;44.764;37.688;2023-06-01T08:45:44;23.78;69.03
79024;DHT22;70306;44.764;37.688;2023-06-01T08:46:46;23.75;68.74
79024;DHT22;70306;44.764;37.688;2023-06-01T08:47:48;23.79;69.11
79024;DHT22;70306;44.764;37.688;2023-06-01T08:48:54;23.82;69.08
79024;DHT22;70306;44.764;37.688;2023-06-01T08:49:58;23.85;69.62
79024;DHT22;70306;44.764;37.688;2023-06-01T08:51:00;23.79;68.76
79024;DHT22;70306;44.764;37.688;2023-06-01T08:52:04;23.76;69.05
79024;DHT22;70306;44.764;37.688;2023-06-01T08:53:08;23.78;69.10
79024;DHT22;70306;44.764;37.688;2023-06-01T08:54:10;23.82;69.09
79024;DHT22;70306;44.764;37.688;2023-06-01T08:55:13;23.80;67.90
79024;DHT22;70306;44.764;37.688;2023-06-01T08:56:15;23.80;68.20
79024;DHT22;70306;44.764;37.688;2023-06-01T08:57:17;23.78;68.54
79024;DHT22;70306;44.764;37.688;2023-06-01T08:58:18;23.85;68.47
79024;DHT22;70306;44.764;37.688;2023-06-01T08:59:20;23.83;68.31
79024;DHT22;70306;44.764;37.688;2023-06-01T09:00:22;23.83;68.03
79024;DHT22;70306;44.764;37.688;2023-06-01T09:01:25;23.86;68.28
79024;DHT22;70306;44.764;37.688;2023-06-01T09:02:27;23.88;68.52
79024;DHT22;70306;44.764;37.688;2023-06-01T09:03:29;23.89;67.81
79024;DHT22;70306;44.764;37.688;2023-06-01T09:04:32;23.89;67.99
79024;DHT22;70306;44.764;37.688;2023-06-01T09:05:35;23.97;67.77
79024;DHT22;70306;44.764;37.688;2023-06-01T09:06:37;24.09;69.25
79024;DHT22;70306;44.764;37.688;2023-06-01T09:07:39;24.14;69.20
79024;DHT22;70306;44.764;37.688;2023-06-01T09:08:41;24.20;68.77
79024;DHT22;70306;44.764;37.688;2023-06-01T09:09:43;24.24;67.59
79024;DHT22;70306;44.764;37.688;2023-06-01T09:10:44;24.23;66.88
79024;DHT22;70306;44.764;37.688;2023-06-01T09:11:46;24.20;66.62
79024;DHT22;70306;44.764;37.688;2023-06-01T09:12:52;24.14;66.68
79024;DHT22;70306;44.764;37.688;2023-06-01T09:13:56;24.06;66.31
79024;DHT22;70306;44.764;37.688;2023-06-01T09:15:15;23.90;66.61
79024;DHT22;70306;44.764;37.688;2023-06-01T09:16:18;23.82;67.29
79024;DHT22;70306;44.764;37.688;2023-06-01T09:17:23;23.80;67.75
79024;DHT22;70306;44.764;37.688;2023-06-01T09:18:25;23.83;67.87
79024;DHT22;70306;44.764;37.688;2023-06-01T09:19:43;23.82;68.13
79024;DHT22;70306;44.764;37.688;2023-06-01T09:20:45;23.80;67.66
79024;DHT22;70306;44.764;37.688;2023-06-01T09:22:05;23.83;67.17
79024;DHT22;70306;44.764;37.688;2023-06-01T09:23:07;23.79;67.07
79024;DHT22;70306;44.764;37.688;2023-06-01T09:24:19;23.82;67.25
79024;DHT22;70306;44.764;37.688;2023-06-01T09:26:28;23.76;67.04
79024;DHT22;70306;44.764;37.688;2023-06-01T09:27:29;23.73;68.86
79024;DHT22;70306;44.764;37.688;2023-06-01T09:28:59;23.71;68.24
79024;DHT22;70306;44.764;37.688;2023-06-01T09:30:00;23.68;68.69
79024;DHT22;70306;44.764;37.688;2023-06-01T09:31:02;23.63;69.30
79024;DHT22;70306;44.764;37.688;2023-06-01T09:32:04;23.62;67.77
79024;DHT22;70306;44.764;37.688;2023-06-01T09:33:16;23.59;68.70
79024;DHT22;70306;44.764;37.688;2023-06-01T09:34:21;23.54;69.26
79024;DHT22;70306;44.764;37.688;2023-06-01T09:35:40;23.51;67.83
79024;DHT22;70306;44.764;37.688;2023-06-01T09:36:42;23.44;68.32
79024;DHT22;70306;44.764;37.688;2023-06-01T09:38:10;23.44;69.14
79024;DHT22;70306;44.764;37.688;2023-06-01T09:39:13;23.41;69.39
79024;DHT22;70306;44.764;37.688;2023-06-01T09:40:18;23.43;68.91
79024;DHT22;70306;44.764;37.688;2023-06-01T09:41:20;23.47;69.59
79024;DHT22;70306;44.764;37.688;2023-06-01T09:42:32;23.50;69.70
79024;DHT22;70306;44.764;37.688;2023-06-01T09:43:34;23.51;69.42
79024;DHT22;70306;44.764;37.688;2023-06-01T09:44:41;23.50;69.06
79024;DHT22;70306;44.764;37.688;2023-06-01T09:45:42;23.52;69.21
79024;DHT22;70306;44.764;37.688;2023-06-01T09:46:48;23.51;68.63
79024;DHT22;70306;44.764;37.688;2023-06-01T09:47:51;23.51;68.07
79024;DHT22;70306;44.764;37.688;2023-06-01T09:49:07;23.48;68.95
79024;DHT22;70306;44.764;37.688;2023-06-01T09:50:09;23.50;68.28
79024;DHT22;70306;44.764;37.688;2023-06-01T09:51:23;23.45;68.82
79024;DHT22;70306;44.764;37.688;2023-06-01T09:52:27;23.43;68.33
79024;DHT22;70306;44.764;37.688;2023-06-01T09:53:43;23.52;69.16
79024;DHT22;70306;44.764;37.688;2023-06-01T09:54:47;23.65;69.12
79024;DHT22;70306;44.764;37.688;2023-06-01T09:56:01;23.72;67.06
79024;DHT22;70306;44.764;37.688;2023-06-01T09:57:04;23.73;67.25
79024;DHT22;70306;44.764;37.688;2023-06-01T09:58:21;23.85;68.02
79024;DHT22;70306;44.764;37.688;2023-06-01T09:59:24;23.95;67.39
79024;DHT22;70306;44.764;37.688;2023-06-01T10:00:27;24.05;67.41
79024;DHT22;70306;44.764;37.688;2023-06-01T10:01:31;24.10;67.22
79024;DHT22;70306;44.764;37.688;2023-06-01T10:02:33;24.17;66.86
79024;DHT22;70306;44.764;37.688;2023-06-01T10:03:40;24.38;65.94
79024;DHT22;70306;44.764;37.688;2023-06-01T10:04:53;24.54;65.26
79024;DHT22;70306;44.764;37.688;2023-06-01T10:05:57;24.57;66.00
79024;DHT22;70306;44.764;37.688;2023-06-01T10:06:59;24.62;65.53
79024;DHT22;70306;44.764;37.688;2023-06-01T10:08:02;24.71;64.47
79024;DHT22;70306;44.764;37.688;2023-06-01T10:09:07;24.69;64.35
79024;DHT22;70306;44.764;37.688;2023-06-01T10:10:14;24.69;66.06
79024;DHT22;70306;44.764;37.688;2023-06-01T10:11:16;24.72;63.69
79024;DHT22;70306;44.764;37.688;2023-06-01T10:12:19;24.64;65.36
79024;DHT22;70306;44.764;37.688;2023-06-01T10:13:20;24.58;65.59
79024;DHT22;70306;44.764;37.688;2023-06-01T10:14:24;24.49;65.27
79024;DHT22;70306;44.764;37.688;2023-06-01T10:15:26;24.37;64.54
79024;DHT22;70306;44.764;37.688;2023-06-01T10:16:28;24.28;64.92
79024;DHT22;70306;44.764;37.688;2023-06-01T10:17:30;24.25;65.53
79024;DHT22;70306;44.764;37.688;2023-06-01T10:18:32;24.17;66.16
79024;DHT22;70306;44.764;37.688;2023-06-01T10:19:36;24.18;66.67
79024;DHT22;70306;44.764;37.688;2023-06-01T10:20:39;24.14;66.34
79024;DHT22;70306;44.764;37.688;2023-06-01T10:21:42;24.14;67.40
79024;DHT22;70306;44.764;37.688;2023-06-01T10:22:45;24.14;66.91
79024;DHT22;70306;44.764;37.688;2023-06-01T10:23:47;24.21;67.20
79024;DHT22;70306;44.764;37.688;2023-06-01T10:24:49;24.24;66.70
79024;DHT22;70306;44.764;37.688;2023-06-01T10:25:52;24.25;66.67
79024;DHT22;70306;44.764;37.688;2023-06-01T10:28:02;24.34;66.58
79024;DHT22;70306;44.764;37.688;2023-06-01T10:29:05;24.42;66.73
79024;DHT22;70306;44.764;37.688;2023-06-01T10:30:08;24.47;67.18
79024;DHT22;70306;44.764;37.688;2023-06-01T10:31:39;24.51;66.58
79024;DHT22;70306;44.764;37.688;2023-06-01T10:32:46;24.54;65.86
79024;DHT22;70306;44.764;37.688;2023-06-01T10:33:52;24.48;65.40
79024;DHT22;70306;44.764;37.688;2023-06-01T10:34:54;24.44;64.37
79024;DHT22;70306;44.764;37.688;2023-06-01T10:35:55;24.40;63.83
79024;DHT22;70306;44.764;37.688;2023-06-01T10:39:22;24.34;64.35
79024;DHT22;70306;44.764;37.688;2023-06-01T10:40:27;24.25;64.50
79024;DHT22;70306;44.764;37.688;2023-06-01T10:41:30;24.24;65.21
79024;DHT22;70306;44.764;37.688;2023-06-01T10:42:36;24.24;65.62
79024;DHT22;70306;44.764;37.688;2023-06-01T10:45:41;24.33;65.59
79024;DHT22;70306;44.764;37.688;2023-06-01T10:46:43;24.35;66.22
79024;DHT22;70306;44.764;37.688;2023-06-01T10:47:45;24.37;66.16
79024;DHT22;70306;44.764;37.688;2023-06-01T10:48:55;24.35;65.85
79024;DHT22;70306;44.764;37.688;2023-06-01T10:51:18;24.41;65.67
79024;DHT22;70306;44.764;37.688;2023-06-01T10:53:30;24.35;64.91
79024;DHT22;70306;44.764;37.688;2023-06-01T10:54:32;24.37;65.04
79024;DHT22;70306;44.764;37.688;2023-06-01T10:55:33;24.37;65.38
79024;DHT22;70306;44.764;37.688;2023-06-01T10:56:35;24.37;64.48
79024;DHT22;70306;44.764;37.688;2023-06-01T10:57:38;24.37;65.51
79024;DHT22;70306;44.764;37.688;2023-06-01T10:58:39;24.31;64.39
79024;DHT22;70306;44.764;37.688;2023-06-01T10:59:42;24.28;65.47
79024;DHT22;70306;44.764;37.688;2023-06-01T11:00:44;24.31;64.17
79024;DHT22;70306;44.764;37.688;2023-06-01T11:01:47;24.28;65.19
79024;DHT22;70306;44.764;37.688;2023-06-01T11:03:51;24.25;64.64
79024;DHT22;70306;44.764;37.688;2023-06-01T11:04:54;24.28;65.03
79024;DHT22;70306;44.764;37.688;2023-06-01T11:05:57;24.27;66.31
79024;DHT22;70306;44.764;37.688;2023-06-01T11:07:34;24.25;67.13
79024;DHT22;70306;44.764;37.688;2023-06-01T11:08:49;24.25;65.59
79024;DHT22;70306;44.764;37.688;2023-06-01T11:09:52;24.18;65.87
79024;DHT22;70306;44.764;37.688;2023-06-01T11:10:57;24.13;65.22
79024;DHT22;70306;44.764;37.688;2023-06-01T11:12:01;24.06;65.55
79024;DHT22;70306;44.764;37.688;2023-06-01T11:13:13;23.99;66.49
79024;DHT22;70306;44.764;37.688;2023-06-01T11:14:24;24.07;67.36
79024;DHT22;70306;44.764;37.688;2023-06-01T11:15:26;24.07;67.34
79024;DHT22;70306;44.764;37.688;2023-06-01T11:16:28;24.12;68.02
79024;DHT22;70306;44.764;37.688;2023-06-01T11:17:30;24.13;66.49
79024;DHT22;70306;44.764;37.688;2023-06-01T11:19:42;24.05;66.76
79024;DHT22;70306;44.764;37.688;2023-06-01T11:20:46;23.97;67.31
79024;DHT22;70306;44.764;37.688;2023-06-01T11:21:48;24.02;67.71
79024;DHT22;70306;44.764;37.688;2023-06-01T11:22:56;24.02;66.78
79024;DHT22;70306;44.764;37.688;2023-06-01T11:23:59;23.97;67.32
79024;DHT22;70306;44.764;37.688;2023-06-01T11:25:05;24.00;67.63
79024;DHT22;70306;44.764;37.688;2023-06-01T11:26:14;23.99;66.62
79024;DHT22;70306;44.764;37.688;2023-06-01T11:27:17;24.00;67.50
79024;DHT22;70306;44.764;37.688;2023-06-01T11:28:20;24.14;66.62
79024;DHT22;70306;44.764;37.688;2023-06-01T11:29:24;24.23;66.87
79024;DHT22;70306;44.764;37.688;2023-06-01T11:30:27;24.31;66.43
79024;DHT22;70306;44.764;37.688;2023-06-01T11:31:34;24.41;66.99
79024;DHT22;70306;44.764;37.688;2023-06-01T11:32:39;24.52;66.15
79024;DHT22;70306;44.764;37.688;2023-06-01T11:33:51;24.61;65.67
79024;DHT22;70306;44.764;37.688;2023-06-01T11:34:58;24.54;64.62
79024;DHT22;70306;44.764;37.688;2023-06-01T11:36:01;24.57;65.83
79024;DHT22;70306;44.764;37.688;2023-06-01T11:37:15;24.55;65.73
79024;DHT22;70306;44.764;37.688;2023-06-01T11:38:17;24.58;65.49
79024;DHT22;70306;44.764;37.688;2023-06-01T11:39:21;24.57;65.00
79024;DHT22;70306;44.764;37.688;2023-06-01T11:40:24;24.57;64.76
79024;DHT22;70306;44.764;37.688;2023-06-01T11:41:27;24.52;65.56
79024;DHT22;70306;44.764;37.688;2023-06-01T11:42:34;24.58;65.21
79024;DHT22;70306;44.764;37.688;2023-06-01T11:43:37;24.58;65.99
79024;DHT22;70306;44.764;37.688;2023-06-01T11:44:46;24.58;66.39
79024;DHT22;70306;44.764;37.688;2023-06-01T11:46:08;24.55;66.21
79024;DHT22;70306;44.764;37.688;2023-06-01T11:47:11;24.55;65.89
79024;DHT22;70306;44.764;37.688;2023-06-01T11:48:13;24.49;66.62
79024;DHT22;70306;44.764;37.688;2023-06-01T11:49:16;24.48;66.42
79024;DHT22;70306;44.764;37.688;2023-06-01T11:50:22;24.51;67.07
79024;DHT22;70306;44.764;37.688;2023-06-01T11:51:25;24.52;66.81
79024;DHT22;70306;44.764;37.688;2023-06-01T11:52:28;24.45;67.15
79024;DHT22;70306;44.764;37.688;2023-06-01T11:53:31;24.49;68.09
79024;DHT22;70306;44.764;37.688;2023-06-01T11:54:36;24.52;67.51
79024;DHT22;70306;44.764;37.688;2023-06-01T11:55:50;24.54;67.13
79024;DHT22;70306;44.764;37.688;2023-06-01T11:56:53;24.52;66.41
79024;DHT22;70306;44.764;37.688;2023-06-01T11:57:55;24.51;66.74
79024;DHT22;70306;44.764;37.688;2023-06-01T11:58:59;24.51;67.12
79024;DHT22;70306;44.764;37.688;2023-06-01T12:00:01;24.55;66.38
79024;DHT22;70306;44.764;37.688;2023-06-01T12:01:06;24.52;66.36
79024;DHT22;70306;44.764;37.688;2023-06-01T12:02:22;24.64;65.37
79024;DHT22;70306;44.764;37.688;2023-06-01T12:03:25;24.64;65.93
79024;DHT22;70306;44.764;37.688;2023-06-01T12:04:27;24.69;66.89
79024;DHT22;70306;44.764;37.688;2023-06-01T12:05:38;24.65;64.40
79024;DHT22;70306;44.764;37.688;2023-06-01T12:06:40;24.57;65.53
79024;DHT22;70306;44.764;37.688;2023-06-01T12:07:49;24.59;65.54
79024;DHT22;70306;44.764;37.688;2023-06-01T12:08:56;24.61;65.14
79024;DHT22;70306;44.764;37.688;2023-06-01T12:09:59;24.62;65.90
79024;DHT22;70306;44.764;37.688;2023-06-01T12:11:02;24.68;65.09
79024;DHT22;70306;44.764;37.688;2023-06-01T12:12:08;24.75;66.80
79024;DHT22;70306;44.764;37.688;2023-06-01T12:13:11;24.77;66.08
79024;DHT22;70306;44.764;37.688;2023-06-01T12:14:14;24.79;66.00
79024;DHT22;70306;44.764;37.688;2023-06-01T12:15:17;24.79;65.33
79024;DHT22;70306;44.764;37.688;2023-06-01T12:16:22;24.83;66.23
79024;DHT22;70306;44.764;37.688;2023-06-01T12:17:45;24.87;66.55
79024;DHT22;70306;44.764;37.688;2023-06-01T12:18:48;24.89;66.55
79024;DHT22;70306;44.764;37.688;2023-06-01T12:19:50;24.89;65.53
79024;DHT22;70306;44.764;37.688;2023-06-01T12:20:53;24.89;65.51
79024;DHT22;70306;44.764;37.688;2023-06-01T12:21:56;24.99;65.42
79024;DHT22;70306;44.764;37.688;2023-06-01T12:22:59;25.00;65.22
79024;DHT22;70306;44.764;37.688;2023-06-01T12:24:04;25.00;65.21
79024;DHT22;70306;44.764;37.688;2023-06-01T12:25:07;25.02;66.01
79024;DHT22;70306;44.764;37.688;2023-06-01T12:26:10;24.97;64.52
79024;DHT22;70306;44.764;37.688;2023-06-01T12:27:17;24.96;64.65
79024;DHT22;70306;44.764;37.688;2023-06-01T12:28:23;24.92;64.37
79024;DHT22;70306;44.764;37.688;2023-06-01T12:29:35;24.87;63.95
79024;DHT22;70306;44.764;37.688;2023-06-01T12:30:38;24.77;65.02
79024;DHT22;70306;44.764;37.688;2023-06-01T12:31:52;24.77;64.88
79024;DHT22;70306;44.764;37.688;2023-06-01T12:32:56;24.83;65.46
79024;DHT22;70306;44.764;37.688;2023-06-01T12:33:58;24.80;64.52
79024;DHT22;70306;44.764;37.688;2023-06-01T12:35:03;24.80;65.39
79024;DHT22;70306;44.764;37.688;2023-06-01T12:36:08;24.82;66.11
79024;DHT22;70306;44.764;37.688;2023-06-01T12:37:15;24.89;65.37
79024;DHT22;70306;44.764;37.688;2023-06-01T12:38:17;24.93;65.57
79024;DHT22;70306;44.764;37.688;2023-06-01T12:39:32;25.00;64.27
79024;DHT22;70306;44.764;37.688;2023-06-01T12:40:41;25.03;64.36
79024;DHT22;70306;44.764;37.688;2023-06-01T12:41:49;25.09;64.21
79024;DHT22;70306;44.764;37.688;2023-06-01T12:42:52;25.17;64.24
79024;DHT22;70306;44.764;37.688;2023-06-01T12:43:56;25.24;63.91
79024;DHT22;70306;44.764;37.688;2023-06-01T12:44:58;25.41;64.20
79024;DHT22;70306;44.764;37.688;2023-06-01T12:46:00;25.39;64.50
79024;DHT22;70306;44.764;37.688;2023-06-01T12:47:03;25.45;64.03
79024;DHT22;70306;44.764;37.688;2023-06-01T12:48:05;25.45;63.04
79024;DHT22;70306;44.764;37.688;2023-06-01T12:49:15;25.44;62.67
79024;DHT22;70306;44.764;37.688;2023-06-01T12:50:21;25.41;63.04
79024;DHT22;70306;44.764;37.688;2023-06-01T12:51:23;25.35;62.85
79024;DHT22;70306;44.764;37.688;2023-06-01T12:52:25;25.33;62.98
79024;DHT22;70306;44.764;37.688;2023-06-01T12:53:28;25.35;63.40
79024;DHT22;70306;44.764;37.688;2023-06-01T12:54:30;25.27;62.69
79024;DHT22;70306;44.764;37.688;2023-06-01T12:55:32;25.24;62.91
79024;DHT22;70306;44.764;37.688;2023-06-01T12:56:34;25.24;62.87
79024;DHT22;70306;44.764;37.688;2023-06-01T12:57:36;25.33;63.89
79024;DHT22;70306;44.764;37.688;2023-06-01T12:58:41;25.33;64.35
79024;DHT22;70306;44.764;37.688;2023-06-01T12:59:43;25.45;63.92
79024;DHT22;70306;44.764;37.688;2023-06-01T13:00:45;25.57;61.99
79024;DHT22;70306;44.764;37.688;2023-06-01T13:01:47;25.55;62.56
79024;DHT22;70306;44.764;37.688;2023-06-01T13:02:50;25.59;63.47
79024;DHT22;70306;44.764;37.688;2023-06-01T13:03:51;25.72;63.04
79024;DHT22;70306;44.764;37.688;2023-06-01T13:04:54;25.83;61.86
79024;DHT22;70306;44.764;37.688;2023-06-01T13:05:56;25.86;61.37
79024;DHT22;70306;44.764;37.688;2023-06-01T13:06:59;25.93;61.00
79024;DHT22;70306;44.764;37.688;2023-06-01T13:08:01;26.03;60.90
79024;DHT22;70306;44.764;37.688;2023-06-01T13:09:04;26.14;60.00
79024;DHT22;70306;44.764;37.688;2023-06-01T13:10:06;26.21;61.08